메인 페이지
METAR-TAF:

METAR-TAF

공항 :

Fort Smith, 아칸소, 미국

위도: 35-20-01N, 경도: 094-21-54W, 고도: 142m

현재 날씨관측

예보는 1 시간 9분 전, 07:53시(UTC)에 발표되었습니다.
서북서3kt
온도 24°C
습도 69%
기압 1011 hPa
시정: 16.1km
맑음

METAR: KFSM 200753Z AUTO 30003KT 10SM CLR 24/18 A2985 RMK AO2 SLP102 T02390178

시각: 04:02 (09:02 UTC)

예보

예보는 3 시간 37분 전, 05:25시(UTC)에 발표되었습니다.
예보 대상 시간: 20일 06시부터 21일 06시까지 (UTC)
동북동5kt
시정: 10km
고도 25000ft 상공 구름 많음
20일 1500시부터 (UTC)
남남동10kt
시정: 10km
고도 25000ft 상공 구름 조금
21일 0200시부터 (UTC)
5kt
시정: 10km
고도 25000ft 상공 구름 보통

TAF: KFSM 200525Z 2006/2106 07005KT P6SM BKN250 FM201500 15010KT P6SM FEW250 FM210200 10005KT P6SM SCT250

4,000개 이상의 공항 관측 자료 및 예보 (METAR 및 TAF 보고).

지도상에서 검색 가능한 기상관측소가 노란 점과 빨간 점으로 표시되어 있습니다.

기상관측소 명을 보려면 표시 위로 마우스를 이동하세요.

날씨 관측과 예보를 보려면 클릭하세요.

지도 변경 : 확대하려면 엑스 표시가 있는 녹색 버튼, 축소하려면 빼기 표시가 있는 녹색 버튼, 다음 페이지의 지도를 보려면 녹색 화살표를 클릭하세요.


METAR-TAF: